sensor_id;sensor_type;location;lat;lon;timestamp;temperature;humidity
11650;DHT22;5881;48.522;7.682;2023-05-09T00:00:43;15.70;99.90
11650;DHT22;5881;48.522;7.682;2023-05-09T00:03:09;15.70;99.90
11650;DHT22;5881;48.522;7.682;2023-05-09T00:05:37;15.70;99.90
11650;DHT22;5881;48.522;7.682;2023-05-09T00:08:03;15.60;99.90
11650;DHT22;5881;48.522;7.682;2023-05-09T00:10:28;15.60;99.90
11650;DHT22;5881;48.522;7.682;2023-05-09T00:12:54;15.60;99.90
11650;DHT22;5881;48.522;7.682;2023-05-09T00:15:21;15.60;99.90
11650;DHT22;5881;48.522;7.682;2023-05-09T00:17:46;15.60;99.90
11650;DHT22;5881;48.522;7.682;2023-05-09T00:20:12;15.60;99.90
11650;DHT22;5881;48.522;7.682;2023-05-09T00:22:39;15.50;99.90
11650;DHT22;5881;48.522;7.682;2023-05-09T00:25:08;15.50;99.90
11650;DHT22;5881;48.522;7.682;2023-05-09T00:27:35;15.50;99.90
11650;DHT22;5881;48.522;7.682;2023-05-09T00:30:01;15.50;99.90
11650;DHT22;5881;48.522;7.682;2023-05-09T00:32:27;15.50;99.90
11650;DHT22;5881;48.522;7.682;2023-05-09T00:34:54;15.50;99.90
11650;DHT22;5881;48.522;7.682;2023-05-09T00:37:19;15.50;99.90
11650;DHT22;5881;48.522;7.682;2023-05-09T00:39:49;15.50;99.90
11650;DHT22;5881;48.522;7.682;2023-05-09T00:42:15;15.50;99.90
11650;DHT22;5881;48.522;7.682;2023-05-09T00:44:41;15.50;99.90
11650;DHT22;5881;48.522;7.682;2023-05-09T00:47:06;15.50;99.90
11650;DHT22;5881;48.522;7.682;2023-05-09T00:49:32;15.50;99.90
11650;DHT22;5881;48.522;7.682;2023-05-09T00:51:58;15.60;99.90
11650;DHT22;5881;48.522;7.682;2023-05-09T00:54:24;15.50;99.90
11650;DHT22;5881;48.522;7.682;2023-05-09T00:56:50;15.50;99.90
11650;DHT22;5881;48.522;7.682;2023-05-09T00:59:16;15.50;99.90
11650;DHT22;5881;48.522;7.682;2023-05-09T01:01:42;15.50;99.90
11650;DHT22;5881;48.522;7.682;2023-05-09T01:04:08;15.40;99.90
11650;DHT22;5881;48.522;7.682;2023-05-09T01:06:47;15.40;99.90
11650;DHT22;5881;48.522;7.682;2023-05-09T01:09:41;15.30;99.90
11650;DHT22;5881;48.522;7.682;2023-05-09T01:12:25;15.30;99.90
11650;DHT22;5881;48.522;7.682;2023-05-09T01:15:01;15.30;99.90
11650;DHT22;5881;48.522;7.682;2023-05-09T01:20:37;15.30;99.90
11650;DHT22;5881;48.522;7.682;2023-05-09T01:26:06;15.30;99.90
11650;DHT22;5881;48.522;7.682;2023-05-09T01:29:12;15.30;99.90
11650;DHT22;5881;48.522;7.682;2023-05-09T01:31:40;15.40;99.90
11650;DHT22;5881;48.522;7.682;2023-05-09T01:34:07;15.30;99.90
11650;DHT22;5881;48.522;7.682;2023-05-09T01:36:36;15.30;99.90
11650;DHT22;5881;48.522;7.682;2023-05-09T01:39:05;15.50;99.90
11650;DHT22;5881;48.522;7.682;2023-05-09T01:41:33;15.40;99.90
11650;DHT22;5881;48.522;7.682;2023-05-09T01:44:03;15.40;99.90
11650;DHT22;5881;48.522;7.682;2023-05-09T01:46:30;15.30;99.90
11650;DHT22;5881;48.522;7.682;2023-05-09T01:48:56;15.30;99.90
11650;DHT22;5881;48.522;7.682;2023-05-09T01:51:23;15.30;99.90
11650;DHT22;5881;48.522;7.682;2023-05-09T01:53:51;15.30;99.90
11650;DHT22;5881;48.522;7.682;2023-05-09T01:56:18;15.30;99.90
11650;DHT22;5881;48.522;7.682;2023-05-09T01:58:46;15.30;99.90
11650;DHT22;5881;48.522;7.682;2023-05-09T02:01:13;15.30;99.90
11650;DHT22;5881;48.522;7.682;2023-05-09T02:03:39;15.30;99.90
11650;DHT22;5881;48.522;7.682;2023-05-09T02:06:06;15.30;99.90
11650;DHT22;5881;48.522;7.682;2023-05-09T02:08:33;15.30;99.90
11650;DHT22;5881;48.522;7.682;2023-05-09T02:10:58;15.30;99.90
11650;DHT22;5881;48.522;7.682;2023-05-09T02:13:24;15.40;99.90
11650;DHT22;5881;48.522;7.682;2023-05-09T02:15:50;15.40;99.90
11650;DHT22;5881;48.522;7.682;2023-05-09T02:18:16;15.30;99.90
11650;DHT22;5881;48.522;7.682;2023-05-09T02:20:41;15.30;99.90
11650;DHT22;5881;48.522;7.682;2023-05-09T02:23:07;15.40;99.90
11650;DHT22;5881;48.522;7.682;2023-05-09T02:25:33;15.30;99.90
11650;DHT22;5881;48.522;7.682;2023-05-09T02:27:59;15.30;99.90
11650;DHT22;5881;48.522;7.682;2023-05-09T02:30:28;15.20;99.90
11650;DHT22;5881;48.522;7.682;2023-05-09T02:33:03;15.40;99.90
11650;DHT22;5881;48.522;7.682;2023-05-09T02:35:30;15.30;99.90
11650;DHT22;5881;48.522;7.682;2023-05-09T02:37:57;15.30;99.90
11650;DHT22;5881;48.522;7.682;2023-05-09T02:40:26;15.30;99.90
11650;DHT22;5881;48.522;7.682;2023-05-09T02:42:52;15.30;99.90
11650;DHT22;5881;48.522;7.682;2023-05-09T02:45:18;15.40;99.90
11650;DHT22;5881;48.522;7.682;2023-05-09T02:47:43;15.40;99.90
11650;DHT22;5881;48.522;7.682;2023-05-09T02:50:09;15.40;99.90
11650;DHT22;5881;48.522;7.682;2023-05-09T02:52:35;15.40;99.90
11650;DHT22;5881;48.522;7.682;2023-05-09T02:55:01;15.40;99.90
11650;DHT22;5881;48.522;7.682;2023-05-09T02:57:27;15.50;99.90
11650;DHT22;5881;48.522;7.682;2023-05-09T02:59:53;15.50;99.90
11650;DHT22;5881;48.522;7.682;2023-05-09T03:02:18;15.50;99.90
11650;DHT22;5881;48.522;7.682;2023-05-09T03:04:44;15.50;99.90
11650;DHT22;5881;48.522;7.682;2023-05-09T03:07:10;15.50;99.90
11650;DHT22;5881;48.522;7.682;2023-05-09T03:09:36;15.50;99.90
11650;DHT22;5881;48.522;7.682;2023-05-09T03:12:01;15.50;99.90
11650;DHT22;5881;48.522;7.682;2023-05-09T03:14:28;15.50;99.90
11650;DHT22;5881;48.522;7.682;2023-05-09T03:16:54;15.50;99.90
11650;DHT22;5881;48.522;7.682;2023-05-09T03:19:19;15.40;99.90
11650;DHT22;5881;48.522;7.682;2023-05-09T03:21:45;15.50;99.90
11650;DHT22;5881;48.522;7.682;2023-05-09T03:24:11;15.50;99.90
11650;DHT22;5881;48.522;7.682;2023-05-09T03:26:36;15.50;99.90
11650;DHT22;5881;48.522;7.682;2023-05-09T03:29:02;15.50;99.90
11650;DHT22;5881;48.522;7.682;2023-05-09T03:31:28;15.50;99.90
11650;DHT22;5881;48.522;7.682;2023-05-09T03:33:54;15.50;99.90
11650;DHT22;5881;48.522;7.682;2023-05-09T03:36:19;15.50;99.90
11650;DHT22;5881;48.522;7.682;2023-05-09T03:38:45;15.50;99.90
11650;DHT22;5881;48.522;7.682;2023-05-09T03:41:13;15.40;99.90
11650;DHT22;5881;48.522;7.682;2023-05-09T03:43:39;15.50;99.90
11650;DHT22;5881;48.522;7.682;2023-05-09T03:46:05;15.50;99.90
11650;DHT22;5881;48.522;7.682;2023-05-09T03:48:30;15.50;99.90
11650;DHT22;5881;48.522;7.682;2023-05-09T03:50:56;15.50;99.90
11650;DHT22;5881;48.522;7.682;2023-05-09T03:53:22;15.50;99.90
11650;DHT22;5881;48.522;7.682;2023-05-09T03:55:48;15.50;99.90
11650;DHT22;5881;48.522;7.682;2023-05-09T03:58:13;15.50;99.90
11650;DHT22;5881;48.522;7.682;2023-05-09T04:00:40;15.50;99.90
11650;DHT22;5881;48.522;7.682;2023-05-09T04:03:06;15.50;99.90
11650;DHT22;5881;48.522;7.682;2023-05-09T04:05:32;15.50;99.90
11650;DHT22;5881;48.522;7.682;2023-05-09T04:07:59;15.50;99.90
11650;DHT22;5881;48.522;7.682;2023-05-09T04:10:25;15.50;99.90
11650;DHT22;5881;48.522;7.682;2023-05-09T04:12:50;15.50;99.90
11650;DHT22;5881;48.522;7.682;2023-05-09T04:15:16;15.50;99.90
11650;DHT22;5881;48.522;7.682;2023-05-09T04:17:42;15.50;99.90
11650;DHT22;5881;48.522;7.682;2023-05-09T04:20:08;15.50;99.90
11650;DHT22;5881;48.522;7.682;2023-05-09T04:22:35;15.50;99.90
11650;DHT22;5881;48.522;7.682;2023-05-09T04:25:01;15.40;99.90
11650;DHT22;5881;48.522;7.682;2023-05-09T04:27:28;15.50;99.90
11650;DHT22;5881;48.522;7.682;2023-05-09T04:29:53;15.40;99.90
11650;DHT22;5881;48.522;7.682;2023-05-09T04:32:19;15.50;99.90
11650;DHT22;5881;48.522;7.682;2023-05-09T04:34:46;15.50;99.90
11650;DHT22;5881;48.522;7.682;2023-05-09T04:37:12;15.50;99.90
11650;DHT22;5881;48.522;7.682;2023-05-09T04:39:38;15.60;99.90
11650;DHT22;5881;48.522;7.682;2023-05-09T04:42:04;15.60;99.90
11650;DHT22;5881;48.522;7.682;2023-05-09T04:44:30;15.70;99.90
11650;DHT22;5881;48.522;7.682;2023-05-09T04:46:55;15.70;99.90
11650;DHT22;5881;48.522;7.682;2023-05-09T04:49:22;15.80;99.90
11650;DHT22;5881;48.522;7.682;2023-05-09T04:51:48;15.80;99.90
11650;DHT22;5881;48.522;7.682;2023-05-09T04:54:13;15.80;99.90
11650;DHT22;5881;48.522;7.682;2023-05-09T04:56:39;15.90;99.90
11650;DHT22;5881;48.522;7.682;2023-05-09T04:59:05;15.90;99.90
11650;DHT22;5881;48.522;7.682;2023-05-09T05:01:30;15.90;99.90
11650;DHT22;5881;48.522;7.682;2023-05-09T05:03:56;15.90;99.90
11650;DHT22;5881;48.522;7.682;2023-05-09T05:06:22;16.00;99.90
11650;DHT22;5881;48.522;7.682;2023-05-09T05:08:47;16.00;99.90
11650;DHT22;5881;48.522;7.682;2023-05-09T05:11:13;16.00;99.90
11650;DHT22;5881;48.522;7.682;2023-05-09T05:13:39;16.10;99.90
11650;DHT22;5881;48.522;7.682;2023-05-09T05:16:05;16.10;99.90
11650;DHT22;5881;48.522;7.682;2023-05-09T05:18:30;16.00;99.90
11650;DHT22;5881;48.522;7.682;2023-05-09T05:20:56;16.10;99.90
11650;DHT22;5881;48.522;7.682;2023-05-09T05:23:21;16.10;99.90
11650;DHT22;5881;48.522;7.682;2023-05-09T05:25:47;16.10;99.90
11650;DHT22;5881;48.522;7.682;2023-05-09T05:28:13;16.20;99.90
11650;DHT22;5881;48.522;7.682;2023-05-09T05:30:39;16.10;99.90
11650;DHT22;5881;48.522;7.682;2023-05-09T05:33:05;16.20;99.90
11650;DHT22;5881;48.522;7.682;2023-05-09T05:35:31;16.10;99.90
11650;DHT22;5881;48.522;7.682;2023-05-09T05:37:56;16.10;99.90
11650;DHT22;5881;48.522;7.682;2023-05-09T05:40:22;16.30;99.90
11650;DHT22;5881;48.522;7.682;2023-05-09T05:42:48;16.30;99.90
11650;DHT22;5881;48.522;7.682;2023-05-09T05:45:13;16.40;99.90
11650;DHT22;5881;48.522;7.682;2023-05-09T05:47:39;16.50;99.90
11650;DHT22;5881;48.522;7.682;2023-05-09T05:50:05;16.40;99.90
11650;DHT22;5881;48.522;7.682;2023-05-09T05:52:32;16.70;99.90
11650;DHT22;5881;48.522;7.682;2023-05-09T05:54:58;16.70;99.90
11650;DHT22;5881;48.522;7.682;2023-05-09T05:57:23;16.70;99.90
11650;DHT22;5881;48.522;7.682;2023-05-09T05:59:50;16.70;99.90
11650;DHT22;5881;48.522;7.682;2023-05-09T06:02:16;16.60;99.90
11650;DHT22;5881;48.522;7.682;2023-05-09T06:04:42;16.60;99.90
11650;DHT22;5881;48.522;7.682;2023-05-09T06:07:09;16.70;99.90
11650;DHT22;5881;48.522;7.682;2023-05-09T06:09:35;16.70;99.90
11650;DHT22;5881;48.522;7.682;2023-05-09T06:12:00;16.60;99.90
11650;DHT22;5881;48.522;7.682;2023-05-09T06:14:26;16.50;99.90
11650;DHT22;5881;48.522;7.682;2023-05-09T06:16:52;16.40;99.90
11650;DHT22;5881;48.522;7.682;2023-05-09T06:19:18;16.50;99.90
11650;DHT22;5881;48.522;7.682;2023-05-09T06:21:43;16.40;99.90
11650;DHT22;5881;48.522;7.682;2023-05-09T06:24:09;16.30;99.90
11650;DHT22;5881;48.522;7.682;2023-05-09T06:26:35;16.30;99.90
11650;DHT22;5881;48.522;7.682;2023-05-09T06:29:01;16.30;99.90
11650;DHT22;5881;48.522;7.682;2023-05-09T06:31:27;16.20;99.90
11650;DHT22;5881;48.522;7.682;2023-05-09T06:33:52;16.00;99.90
11650;DHT22;5881;48.522;7.682;2023-05-09T06:36:18;16.10;99.90
11650;DHT22;5881;48.522;7.682;2023-05-09T06:38:44;16.00;99.90
11650;DHT22;5881;48.522;7.682;2023-05-09T06:41:09;15.90;99.90
11650;DHT22;5881;48.522;7.682;2023-05-09T06:43:35;15.90;99.90
11650;DHT22;5881;48.522;7.682;2023-05-09T06:46:01;16.10;99.90
11650;DHT22;5881;48.522;7.682;2023-05-09T06:48:27;16.10;99.90
11650;DHT22;5881;48.522;7.682;2023-05-09T06:50:52;16.00;99.90
11650;DHT22;5881;48.522;7.682;2023-05-09T06:53:18;16.20;99.90
11650;DHT22;5881;48.522;7.682;2023-05-09T06:55:44;16.20;99.90
11650;DHT22;5881;48.522;7.682;2023-05-09T06:58:09;16.40;99.90
11650;DHT22;5881;48.522;7.682;2023-05-09T07:00:36;16.80;99.90
11650;DHT22;5881;48.522;7.682;2023-05-09T07:03:02;17.10;99.90
11650;DHT22;5881;48.522;7.682;2023-05-09T07:05:27;18.40;99.90
11650;DHT22;5881;48.522;7.682;2023-05-09T07:07:53;18.10;99.90
11650;DHT22;5881;48.522;7.682;2023-05-09T07:10:21;17.90;99.90
11650;DHT22;5881;48.522;7.682;2023-05-09T07:12:47;17.90;99.90
11650;DHT22;5881;48.522;7.682;2023-05-09T07:15:13;17.80;99.90
11650;DHT22;5881;48.522;7.682;2023-05-09T07:17:38;17.60;99.90
11650;DHT22;5881;48.522;7.682;2023-05-09T07:20:06;17.40;99.90
11650;DHT22;5881;48.522;7.682;2023-05-09T07:22:31;17.40;99.90
11650;DHT22;5881;48.522;7.682;2023-05-09T07:24:57;17.40;99.90
11650;DHT22;5881;48.522;7.682;2023-05-09T07:27:23;17.70;99.90
11650;DHT22;5881;48.522;7.682;2023-05-09T07:29:48;17.60;99.90
11650;DHT22;5881;48.522;7.682;2023-05-09T07:32:17;17.60;99.90
11650;DHT22;5881;48.522;7.682;2023-05-09T07:34:43;17.60;99.90
11650;DHT22;5881;48.522;7.682;2023-05-09T07:37:08;17.40;99.90
11650;DHT22;5881;48.522;7.682;2023-05-09T07:39:34;17.30;99.90
11650;DHT22;5881;48.522;7.682;2023-05-09T07:42:00;17.40;99.90
11650;DHT22;5881;48.522;7.682;2023-05-09T07:44:25;17.40;99.90
11650;DHT22;5881;48.522;7.682;2023-05-09T07:46:51;17.40;99.90
11650;DHT22;5881;48.522;7.682;2023-05-09T07:49:18;17.40;99.90
11650;DHT22;5881;48.522;7.682;2023-05-09T07:51:44;17.50;99.90
11650;DHT22;5881;48.522;7.682;2023-05-09T07:54:10;17.40;99.90
11650;DHT22;5881;48.522;7.682;2023-05-09T07:56:35;17.50;99.90
11650;DHT22;5881;48.522;7.682;2023-05-09T07:59:01;17.60;99.90
11650;DHT22;5881;48.522;7.682;2023-05-09T08:01:27;17.50;99.90
11650;DHT22;5881;48.522;7.682;2023-05-09T08:03:53;17.30;99.90
11650;DHT22;5881;48.522;7.682;2023-05-09T08:06:19;17.50;99.90
11650;DHT22;5881;48.522;7.682;2023-05-09T08:08:44;17.60;99.90
11650;DHT22;5881;48.522;7.682;2023-05-09T08:11:10;17.40;99.90
11650;DHT22;5881;48.522;7.682;2023-05-09T08:13:36;17.30;99.90
11650;DHT22;5881;48.522;7.682;2023-05-09T08:16:01;17.30;99.90
11650;DHT22;5881;48.522;7.682;2023-05-09T08:18:27;17.20;99.90
11650;DHT22;5881;48.522;7.682;2023-05-09T08:20:53;17.20;99.90
11650;DHT22;5881;48.522;7.682;2023-05-09T08:23:19;17.10;99.90
11650;DHT22;5881;48.522;7.682;2023-05-09T08:25:44;17.10;99.90
11650;DHT22;5881;48.522;7.682;2023-05-09T08:28:10;16.90;99.90
11650;DHT22;5881;48.522;7.682;2023-05-09T08:30:36;17.00;99.90
11650;DHT22;5881;48.522;7.682;2023-05-09T08:33:01;17.00;99.90
11650;DHT22;5881;48.522;7.682;2023-05-09T08:35:27;17.00;99.90
11650;DHT22;5881;48.522;7.682;2023-05-09T08:37:53;17.20;99.90
11650;DHT22;5881;48.522;7.682;2023-05-09T08:40:19;17.30;99.90
11650;DHT22;5881;48.522;7.682;2023-05-09T08:42:44;17.50;99.90
11650;DHT22;5881;48.522;7.682;2023-05-09T08:45:13;17.80;99.90
11650;DHT22;5881;48.522;7.682;2023-05-09T08:47:40;18.20;99.90
11650;DHT22;5881;48.522;7.682;2023-05-09T08:50:07;18.40;99.90
11650;DHT22;5881;48.522;7.682;2023-05-09T08:52:33;18.60;99.90
11650;DHT22;5881;48.522;7.682;2023-05-09T08:55:02;19.10;99.90
11650;DHT22;5881;48.522;7.682;2023-05-09T08:57:32;19.50;99.90
11650;DHT22;5881;48.522;7.682;2023-05-09T09:00:02;19.60;99.90
11650;DHT22;5881;48.522;7.682;2023-05-09T09:02:31;19.50;99.90
11650;DHT22;5881;48.522;7.682;2023-05-09T09:04:57;20.00;99.90
11650;DHT22;5881;48.522;7.682;2023-05-09T09:07:24;20.00;99.90
11650;DHT22;5881;48.522;7.682;2023-05-09T09:09:51;19.80;99.90
11650;DHT22;5881;48.522;7.682;2023-05-09T09:12:17;20.50;99.90
11650;DHT22;5881;48.522;7.682;2023-05-09T09:14:48;20.70;99.90
11650;DHT22;5881;48.522;7.682;2023-05-09T09:17:17;21.20;99.90
11650;DHT22;5881;48.522;7.682;2023-05-09T09:19:44;22.10;99.90
11650;DHT22;5881;48.522;7.682;2023-05-09T09:22:15;21.90;99.90
11650;DHT22;5881;48.522;7.682;2023-05-09T09:24:43;21.10;99.90
11650;DHT22;5881;48.522;7.682;2023-05-09T09:27:08;21.80;99.90
11650;DHT22;5881;48.522;7.682;2023-05-09T09:29:34;21.70;99.90
11650;DHT22;5881;48.522;7.682;2023-05-09T09:32:03;22.10;99.90
11650;DHT22;5881;48.522;7.682;2023-05-09T09:34:29;22.50;99.90
11650;DHT22;5881;48.522;7.682;2023-05-09T09:36:55;22.70;99.90
11650;DHT22;5881;48.522;7.682;2023-05-09T09:39:21;23.00;99.90
11650;DHT22;5881;48.522;7.682;2023-05-09T09:41:47;22.90;99.90
11650;DHT22;5881;48.522;7.682;2023-05-09T09:44:21;22.30;99.90
11650;DHT22;5881;48.522;7.682;2023-05-09T09:46:51;22.50;99.90
11650;DHT22;5881;48.522;7.682;2023-05-09T09:49:21;22.70;99.90
11650;DHT22;5881;48.522;7.682;2023-05-09T09:51:55;22.60;99.90
11650;DHT22;5881;48.522;7.682;2023-05-09T09:54:21;22.70;99.90
11650;DHT22;5881;48.522;7.682;2023-05-09T09:56:51;22.40;99.90
11650;DHT22;5881;48.522;7.682;2023-05-09T09:59:22;23.00;99.90
11650;DHT22;5881;48.522;7.682;2023-05-09T10:02:01;22.40;99.90
11650;DHT22;5881;48.522;7.682;2023-05-09T10:04:29;22.20;99.90
11650;DHT22;5881;48.522;7.682;2023-05-09T10:07:00;21.90;99.90
11650;DHT22;5881;48.522;7.682;2023-05-09T10:09:30;21.60;99.90
11650;DHT22;5881;48.522;7.682;2023-05-09T10:12:03;21.60;99.90
11650;DHT22;5881;48.522;7.682;2023-05-09T10:14:31;21.60;99.90
11650;DHT22;5881;48.522;7.682;2023-05-09T10:16:57;22.00;99.90
11650;DHT22;5881;48.522;7.682;2023-05-09T10:19:26;22.00;99.90
11650;DHT22;5881;48.522;7.682;2023-05-09T10:21:59;21.80;99.90
11650;DHT22;5881;48.522;7.682;2023-05-09T10:24:33;22.20;99.90
11650;DHT22;5881;48.522;7.682;2023-05-09T10:27:02;21.90;99.90
11650;DHT22;5881;48.522;7.682;2023-05-09T10:29:37;21.80;99.90
11650;DHT22;5881;48.522;7.682;2023-05-09T10:32:14;21.80;99.90
11650;DHT22;5881;48.522;7.682;2023-05-09T10:34:44;22.20;99.90
11650;DHT22;5881;48.522;7.682;2023-05-09T10:37:12;22.40;99.90
11650;DHT22;5881;48.522;7.682;2023-05-09T10:39:39;23.00;99.90
11650;DHT22;5881;48.522;7.682;2023-05-09T10:42:06;23.00;99.90
11650;DHT22;5881;48.522;7.682;2023-05-09T10:44:32;22.70;99.90
11650;DHT22;5881;48.522;7.682;2023-05-09T10:46:58;22.90;99.90
11650;DHT22;5881;48.522;7.682;2023-05-09T10:49:24;23.00;96.10
11650;DHT22;5881;48.522;7.682;2023-05-09T10:51:50;22.80;99.90
11650;DHT22;5881;48.522;7.682;2023-05-09T10:54:35;22.90;93.30
11650;DHT22;5881;48.522;7.682;2023-05-09T10:57:02;23.00;94.90
11650;DHT22;5881;48.522;7.682;2023-05-09T10:59:32;22.70;94.30
11650;DHT22;5881;48.522;7.682;2023-05-09T11:01:59;22.90;94.00
11650;DHT22;5881;48.522;7.682;2023-05-09T11:04:27;23.30;94.40
11650;DHT22;5881;48.522;7.682;2023-05-09T11:06:53;23.10;93.90
11650;DHT22;5881;48.522;7.682;2023-05-09T11:09:34;23.50;92.60
11650;DHT22;5881;48.522;7.682;2023-05-09T11:12:10;23.40;90.40
11650;DHT22;5881;48.522;7.682;2023-05-09T11:14:44;23.20;87.00
11650;DHT22;5881;48.522;7.682;2023-05-09T11:24:50;23.40;42.50
11650;DHT22;5881;48.522;7.682;2023-05-09T11:27:19;23.20;44.10
11650;DHT22;5881;48.522;7.682;2023-05-09T11:29:50;23.50;40.00
11650;DHT22;5881;48.522;7.682;2023-05-09T11:32:17;23.20;37.90
11650;DHT22;5881;48.522;7.682;2023-05-09T11:34:43;23.30;37.60
11650;DHT22;5881;48.522;7.682;2023-05-09T11:37:13;23.20;36.20
11650;DHT22;5881;48.522;7.682;2023-05-09T11:40:00;23.10;33.30
11650;DHT22;5881;48.522;7.682;2023-05-09T11:42:30;22.80;32.00
11650;DHT22;5881;48.522;7.682;2023-05-09T11:44:56;22.60;30.90
11650;DHT22;5881;48.522;7.682;2023-05-09T11:47:22;22.50;29.70
11650;DHT22;5881;48.522;7.682;2023-05-09T11:49:48;22.70;30.90
11650;DHT22;5881;48.522;7.682;2023-05-09T11:52:15;23.50;32.20
11650;DHT22;5881;48.522;7.682;2023-05-09T11:54:41;23.90;34.80
11650;DHT22;5881;48.522;7.682;2023-05-09T11:57:07;23.50;37.60
11650;DHT22;5881;48.522;7.682;2023-05-09T11:59:33;23.20;25.50
11650;DHT22;5881;48.522;7.682;2023-05-09T12:02:05;23.10;25.30
11650;DHT22;5881;48.522;7.682;2023-05-09T12:04:32;23.10;23.30
11650;DHT22;5881;48.522;7.682;2023-05-09T12:06:58;23.50;24.60
11650;DHT22;5881;48.522;7.682;2023-05-09T12:09:28;23.50;23.70
11650;DHT22;5881;48.522;7.682;2023-05-09T12:11:53;23.40;19.80
11650;DHT22;5881;48.522;7.682;2023-05-09T12:14:33;23.40;16.50
11650;DHT22;5881;48.522;7.682;2023-05-09T12:16:59;22.70;26.70
11650;DHT22;5881;48.522;7.682;2023-05-09T12:19:26;22.60;15.00
11650;DHT22;5881;48.522;7.682;2023-05-09T12:24:22;22.90;18.30
11650;DHT22;5881;48.522;7.682;2023-05-09T12:26:48;22.70;19.20
11650;DHT22;5881;48.522;7.682;2023-05-09T12:29:15;22.70;18.00
11650;DHT22;5881;48.522;7.682;2023-05-09T12:31:41;23.40;20.40
11650;DHT22;5881;48.522;7.682;2023-05-09T12:34:08;23.60;22.70
11650;DHT22;5881;48.522;7.682;2023-05-09T12:36:37;23.80;21.30
11650;DHT22;5881;48.522;7.682;2023-05-09T12:39:08;23.80;21.70
11650;DHT22;5881;48.522;7.682;2023-05-09T12:41:41;23.50;17.30
11650;DHT22;5881;48.522;7.682;2023-05-09T12:44:07;23.80;18.40
11650;DHT22;5881;48.522;7.682;2023-05-09T12:46:33;23.30;13.40
11650;DHT22;5881;48.522;7.682;2023-05-09T12:48:58;23.50;13.80
11650;DHT22;5881;48.522;7.682;2023-05-09T12:51:24;23.20;9.10
11650;DHT22;5881;48.522;7.682;2023-05-09T12:53:50;23.20;9.40
11650;DHT22;5881;48.522;7.682;2023-05-09T12:56:20;23.70;12.20
11650;DHT22;5881;48.522;7.682;2023-05-09T12:58:50;23.70;9.50
11650;DHT22;5881;48.522;7.682;2023-05-09T13:01:16;23.20;5.20
11650;DHT22;5881;48.522;7.682;2023-05-09T13:03:42;23.00;4.90
11650;DHT22;5881;48.522;7.682;2023-05-09T13:06:13;22.90;2.90
11650;DHT22;5881;48.522;7.682;2023-05-09T13:08:39;22.80;1.00
11650;DHT22;5881;48.522;7.682;2023-05-09T13:11:05;22.50;1.00
11650;DHT22;5881;48.522;7.682;2023-05-09T13:13:32;23.00;1.70
11650;DHT22;5881;48.522;7.682;2023-05-09T13:15:57;22.70;1.00
11650;DHT22;5881;48.522;7.682;2023-05-09T13:18:23;22.70;1.00
11650;DHT22;5881;48.522;7.682;2023-05-09T13:20:49;22.40;1.00
11650;DHT22;5881;48.522;7.682;2023-05-09T13:23:15;22.90;1.70
11650;DHT22;5881;48.522;7.682;2023-05-09T13:25:41;22.90;2.10
11650;DHT22;5881;48.522;7.682;2023-05-09T13:28:07;22.60;1.00
11650;DHT22;5881;48.522;7.682;2023-05-09T13:30:33;22.30;1.00
11650;DHT22;5881;48.522;7.682;2023-05-09T13:32:59;22.40;1.00
11650;DHT22;5881;48.522;7.682;2023-05-09T13:35:24;22.40;1.00
11650;DHT22;5881;48.522;7.682;2023-05-09T13:37:50;22.60;1.00
11650;DHT22;5881;48.522;7.682;2023-05-09T13:40:16;22.40;1.00
11650;DHT22;5881;48.522;7.682;2023-05-09T13:42:42;22.20;1.00
11650;DHT22;5881;48.522;7.682;2023-05-09T13:45:08;22.60;1.00
11650;DHT22;5881;48.522;7.682;2023-05-09T13:47:33;22.40;1.00
11650;DHT22;5881;48.522;7.682;2023-05-09T13:50:00;22.60;1.00
11650;DHT22;5881;48.522;7.682;2023-05-09T13:52:26;22.50;1.00
11650;DHT22;5881;48.522;7.682;2023-05-09T13:54:52;22.20;1.00
11650;DHT22;5881;48.522;7.682;2023-05-09T13:57:18;22.20;1.00
11650;DHT22;5881;48.522;7.682;2023-05-09T13:59:43;22.30;1.00
11650;DHT22;5881;48.522;7.682;2023-05-09T14:02:09;22.10;1.00
11650;DHT22;5881;48.522;7.682;2023-05-09T14:04:35;21.90;1.00
11650;DHT22;5881;48.522;7.682;2023-05-09T14:07:01;22.00;1.00
11650;DHT22;5881;48.522;7.682;2023-05-09T14:09:27;21.90;1.00
11650;DHT22;5881;48.522;7.682;2023-05-09T14:12:02;22.00;1.00
11650;DHT22;5881;48.522;7.682;2023-05-09T14:14:28;21.90;1.00
11650;DHT22;5881;48.522;7.682;2023-05-09T14:16:54;21.70;1.00
11650;DHT22;5881;48.522;7.682;2023-05-09T14:19:19;21.70;1.00
11650;DHT22;5881;48.522;7.682;2023-05-09T14:21:45;21.90;1.00
11650;DHT22;5881;48.522;7.682;2023-05-09T14:24:11;21.70;1.00
11650;DHT22;5881;48.522;7.682;2023-05-09T14:26:38;21.50;1.50
11650;DHT22;5881;48.522;7.682;2023-05-09T14:29:04;21.40;3.00
11650;DHT22;5881;48.522;7.682;2023-05-09T14:31:30;21.30;2.00
11650;DHT22;5881;48.522;7.682;2023-05-09T14:33:56;21.20;2.30
11650;DHT22;5881;48.522;7.682;2023-05-09T14:36:23;21.10;3.80
11650;DHT22;5881;48.522;7.682;2023-05-09T14:38:48;21.00;6.50
11650;DHT22;5881;48.522;7.682;2023-05-09T14:41:14;21.00;9.80
11650;DHT22;5881;48.522;7.682;2023-05-09T14:43:40;21.00;13.30
11650;DHT22;5881;48.522;7.682;2023-05-09T14:46:05;20.80;14.30
11650;DHT22;5881;48.522;7.682;2023-05-09T14:48:31;20.60;17.00
11650;DHT22;5881;48.522;7.682;2023-05-09T14:50:58;20.60;18.50
11650;DHT22;5881;48.522;7.682;2023-05-09T14:53:24;20.60;28.70
11650;DHT22;5881;48.522;7.682;2023-05-09T14:55:50;20.60;40.40
11650;DHT22;5881;48.522;7.682;2023-05-09T14:58:18;20.60;54.20
11650;DHT22;5881;48.522;7.682;2023-05-09T15:00:45;20.60;68.10
11650;DHT22;5881;48.522;7.682;2023-05-09T15:03:10;20.60;80.40
11650;DHT22;5881;48.522;7.682;2023-05-09T15:05:36;20.40;97.40
11650;DHT22;5881;48.522;7.682;2023-05-09T15:08:02;20.10;99.90
11650;DHT22;5881;48.522;7.682;2023-05-09T15:10:28;19.80;99.90
11650;DHT22;5881;48.522;7.682;2023-05-09T15:12:53;19.50;99.90
11650;DHT22;5881;48.522;7.682;2023-05-09T15:15:21;19.10;99.90
11650;DHT22;5881;48.522;7.682;2023-05-09T15:17:48;18.20;99.90
11650;DHT22;5881;48.522;7.682;2023-05-09T15:20:15;17.70;99.90
11650;DHT22;5881;48.522;7.682;2023-05-09T15:22:41;17.40;99.90
11650;DHT22;5881;48.522;7.682;2023-05-09T15:25:07;17.30;1.00
11650;DHT22;5881;48.522;7.682;2023-05-09T15:27:33;17.30;1.00
11650;DHT22;5881;48.522;7.682;2023-05-09T15:29:59;17.20;1.00
11650;DHT22;5881;48.522;7.682;2023-05-09T15:32:25;17.20;99.90
11650;DHT22;5881;48.522;7.682;2023-05-09T15:34:51;17.30;99.90
11650;DHT22;5881;48.522;7.682;2023-05-09T15:37:17;17.30;1.00
11650;DHT22;5881;48.522;7.682;2023-05-09T15:39:42;17.30;99.90
11650;DHT22;5881;48.522;7.682;2023-05-09T15:42:10;17.40;1.00
11650;DHT22;5881;48.522;7.682;2023-05-09T15:44:42;17.30;63.70
11650;DHT22;5881;48.522;7.682;2023-05-09T15:47:08;17.30;1.00
11650;DHT22;5881;48.522;7.682;2023-05-09T15:49:34;17.30;1.00
11650;DHT22;5881;48.522;7.682;2023-05-09T15:52:07;17.40;99.90
11650;DHT22;5881;48.522;7.682;2023-05-09T15:54:34;17.60;99.90
11650;DHT22;5881;48.522;7.682;2023-05-09T15:57:00;17.60;99.90
11650;DHT22;5881;48.522;7.682;2023-05-09T15:59:27;17.80;99.90
11650;DHT22;5881;48.522;7.682;2023-05-09T16:01:53;17.70;35.60